sensor_id;sensor_type;location;lat;lon;timestamp;P1;durP1;ratioP1;P2;durP2;ratioP2
11197;SDS011;5655;48.744;9.162;2024-03-29T00:00:39;1.17;;;0.90;;
11197;SDS011;5655;48.744;9.162;2024-03-29T00:03:05;2.75;;;1.13;;
11197;SDS011;5655;48.744;9.162;2024-03-29T00:05:31;2.33;;;1.20;;
11197;SDS011;5655;48.744;9.162;2024-03-29T00:07:57;3.30;;;1.20;;
11197;SDS011;5655;48.744;9.162;2024-03-29T00:10:22;1.77;;;1.23;;
11197;SDS011;5655;48.744;9.162;2024-03-29T00:12:47;2.65;;;1.40;;
11197;SDS011;5655;48.744;9.162;2024-03-29T00:15:12;3.03;;;1.60;;
11197;SDS011;5655;48.744;9.162;2024-03-29T00:17:38;1.83;;;1.25;;
11197;SDS011;5655;48.744;9.162;2024-03-29T00:20:04;2.13;;;1.20;;
11197;SDS011;5655;48.744;9.162;2024-03-29T00:22:30;2.55;;;1.33;;
11197;SDS011;5655;48.744;9.162;2024-03-29T00:24:56;2.55;;;1.20;;
11197;SDS011;5655;48.744;9.162;2024-03-29T00:27:21;3.17;;;1.50;;
11197;SDS011;5655;48.744;9.162;2024-03-29T00:29:50;2.05;;;1.40;;
11197;SDS011;5655;48.744;9.162;2024-03-29T00:32:18;2.15;;;1.23;;
11197;SDS011;5655;48.744;9.162;2024-03-29T00:34:43;2.60;;;1.23;;
11197;SDS011;5655;48.744;9.162;2024-03-29T00:37:09;2.92;;;1.20;;
11197;SDS011;5655;48.744;9.162;2024-03-29T00:39:34;2.05;;;1.02;;
11197;SDS011;5655;48.744;9.162;2024-03-29T00:41:59;3.10;;;1.17;;
11197;SDS011;5655;48.744;9.162;2024-03-29T00:44:25;2.30;;;1.30;;
11197;SDS011;5655;48.744;9.162;2024-03-29T00:46:50;2.72;;;1.40;;
11197;SDS011;5655;48.744;9.162;2024-03-29T00:49:15;2.53;;;1.35;;
11197;SDS011;5655;48.744;9.162;2024-03-29T00:51:40;1.77;;;1.25;;
11197;SDS011;5655;48.744;9.162;2024-03-29T00:54:06;2.90;;;1.45;;
11197;SDS011;5655;48.744;9.162;2024-03-29T00:56:31;1.80;;;1.20;;
11197;SDS011;5655;48.744;9.162;2024-03-29T00:58:56;2.20;;;1.15;;
11197;SDS011;5655;48.744;9.162;2024-03-29T01:01:22;2.85;;;1.17;;
11197;SDS011;5655;48.744;9.162;2024-03-29T01:03:47;2.45;;;1.10;;
11197;SDS011;5655;48.744;9.162;2024-03-29T01:06:12;3.28;;;1.15;;
11197;SDS011;5655;48.744;9.162;2024-03-29T01:08:37;1.30;;;1.00;;
11197;SDS011;5655;48.744;9.162;2024-03-29T01:11:03;5.20;;;1.08;;
11197;SDS011;5655;48.744;9.162;2024-03-29T01:13:28;0.77;;;0.68;;
11197;SDS011;5655;48.744;9.162;2024-03-29T01:15:54;1.42;;;0.90;;
11197;SDS011;5655;48.744;9.162;2024-03-29T01:18:19;1.50;;;1.10;;
11197;SDS011;5655;48.744;9.162;2024-03-29T01:20:44;0.85;;;0.80;;
11197;SDS011;5655;48.744;9.162;2024-03-29T01:23:10;2.30;;;1.17;;
11197;SDS011;5655;48.744;9.162;2024-03-29T01:25:35;1.88;;;1.05;;
11197;SDS011;5655;48.744;9.162;2024-03-29T01:28:00;1.33;;;0.90;;
11197;SDS011;5655;48.744;9.162;2024-03-29T01:30:26;2.35;;;0.88;;
11197;SDS011;5655;48.744;9.162;2024-03-29T01:32:52;4.32;;;0.88;;
11197;SDS011;5655;48.744;9.162;2024-03-29T01:35:17;2.33;;;0.90;;
11197;SDS011;5655;48.744;9.162;2024-03-29T01:37:42;0.73;;;0.70;;
11197;SDS011;5655;48.744;9.162;2024-03-29T01:40:08;4.28;;;1.10;;
11197;SDS011;5655;48.744;9.162;2024-03-29T01:42:35;4.22;;;1.10;;
11197;SDS011;5655;48.744;9.162;2024-03-29T01:45:01;1.00;;;0.80;;
11197;SDS011;5655;48.744;9.162;2024-03-29T01:47:26;1.25;;;0.98;;
11197;SDS011;5655;48.744;9.162;2024-03-29T01:49:51;0.80;;;0.80;;
11197;SDS011;5655;48.744;9.162;2024-03-29T01:52:17;1.48;;;1.10;;
11197;SDS011;5655;48.744;9.162;2024-03-29T01:54:44;2.50;;;1.00;;
11197;SDS011;5655;48.744;9.162;2024-03-29T01:57:12;2.47;;;1.00;;
11197;SDS011;5655;48.744;9.162;2024-03-29T01:59:38;0.88;;;0.68;;
11197;SDS011;5655;48.744;9.162;2024-03-29T02:02:05;2.72;;;0.90;;
11197;SDS011;5655;48.744;9.162;2024-03-29T02:04:31;0.80;;;0.70;;
11197;SDS011;5655;48.744;9.162;2024-03-29T02:06:56;1.55;;;0.80;;
11197;SDS011;5655;48.744;9.162;2024-03-29T02:09:22;1.40;;;0.70;;
11197;SDS011;5655;48.744;9.162;2024-03-29T02:11:47;1.95;;;0.75;;
11197;SDS011;5655;48.744;9.162;2024-03-29T02:14:13;1.08;;;0.70;;
11197;SDS011;5655;48.744;9.162;2024-03-29T02:16:38;0.97;;;0.70;;
11197;SDS011;5655;48.744;9.162;2024-03-29T02:19:03;0.52;;;0.50;;
11197;SDS011;5655;48.744;9.162;2024-03-29T02:21:29;1.25;;;0.85;;
11197;SDS011;5655;48.744;9.162;2024-03-29T02:23:57;0.98;;;0.50;;
11197;SDS011;5655;48.744;9.162;2024-03-29T02:26:42;0.90;;;0.65;;
11197;SDS011;5655;48.744;9.162;2024-03-29T02:29:10;1.45;;;0.65;;
11197;SDS011;5655;48.744;9.162;2024-03-29T02:31:35;1.02;;;0.60;;
11197;SDS011;5655;48.744;9.162;2024-03-29T02:34:00;1.05;;;0.77;;
11197;SDS011;5655;48.744;9.162;2024-03-29T02:36:26;1.05;;;0.82;;
11197;SDS011;5655;48.744;9.162;2024-03-29T02:38:51;1.52;;;0.70;;
11197;SDS011;5655;48.744;9.162;2024-03-29T02:41:16;1.60;;;0.70;;
11197;SDS011;5655;48.744;9.162;2024-03-29T02:43:42;0.60;;;0.55;;
11197;SDS011;5655;48.744;9.162;2024-03-29T02:46:07;2.28;;;0.90;;
11197;SDS011;5655;48.744;9.162;2024-03-29T02:48:32;1.88;;;0.75;;
11197;SDS011;5655;48.744;9.162;2024-03-29T02:50:58;1.27;;;0.80;;
11197;SDS011;5655;48.744;9.162;2024-03-29T02:53:23;0.98;;;0.80;;
11197;SDS011;5655;48.744;9.162;2024-03-29T02:55:48;1.58;;;0.90;;
11197;SDS011;5655;48.744;9.162;2024-03-29T02:58:14;0.82;;;0.57;;
11197;SDS011;5655;48.744;9.162;2024-03-29T03:00:39;1.08;;;0.70;;
11197;SDS011;5655;48.744;9.162;2024-03-29T03:03:05;1.13;;;0.60;;
11197;SDS011;5655;48.744;9.162;2024-03-29T03:05:30;0.70;;;0.65;;
11197;SDS011;5655;48.744;9.162;2024-03-29T03:07:55;1.00;;;0.70;;
11197;SDS011;5655;48.744;9.162;2024-03-29T03:10:48;1.08;;;0.60;;
11197;SDS011;5655;48.744;9.162;2024-03-29T03:13:26;1.10;;;0.60;;
11197;SDS011;5655;48.744;9.162;2024-03-29T03:15:53;0.70;;;0.50;;
11197;SDS011;5655;48.744;9.162;2024-03-29T03:18:18;1.85;;;0.50;;
11197;SDS011;5655;48.744;9.162;2024-03-29T03:20:49;3.25;;;0.82;;
11197;SDS011;5655;48.744;9.162;2024-03-29T03:23:18;1.88;;;0.70;;
11197;SDS011;5655;48.744;9.162;2024-03-29T03:25:43;2.03;;;0.60;;
11197;SDS011;5655;48.744;9.162;2024-03-29T03:28:09;2.05;;;0.70;;
11197;SDS011;5655;48.744;9.162;2024-03-29T03:30:37;1.23;;;0.57;;
11197;SDS011;5655;48.744;9.162;2024-03-29T03:33:04;0.75;;;0.57;;
11197;SDS011;5655;48.744;9.162;2024-03-29T03:35:30;0.77;;;0.60;;
11197;SDS011;5655;48.744;9.162;2024-03-29T03:37:55;0.73;;;0.52;;
11197;SDS011;5655;48.744;9.162;2024-03-29T03:40:21;1.42;;;0.77;;
11197;SDS011;5655;48.744;9.162;2024-03-29T03:42:46;0.82;;;0.40;;
11197;SDS011;5655;48.744;9.162;2024-03-29T03:45:12;0.93;;;0.50;;
11197;SDS011;5655;48.744;9.162;2024-03-29T03:47:38;0.77;;;0.60;;
11197;SDS011;5655;48.744;9.162;2024-03-29T03:50:03;0.98;;;0.70;;
11197;SDS011;5655;48.744;9.162;2024-03-29T03:52:29;0.93;;;0.70;;
11197;SDS011;5655;48.744;9.162;2024-03-29T03:54:54;0.73;;;0.60;;
11197;SDS011;5655;48.744;9.162;2024-03-29T03:57:20;1.20;;;0.80;;
11197;SDS011;5655;48.744;9.162;2024-03-29T03:59:45;4.00;;;0.73;;
11197;SDS011;5655;48.744;9.162;2024-03-29T04:02:10;0.55;;;0.43;;
11197;SDS011;5655;48.744;9.162;2024-03-29T04:04:35;3.28;;;0.50;;
11197;SDS011;5655;48.744;9.162;2024-03-29T04:07:01;0.93;;;0.60;;
11197;SDS011;5655;48.744;9.162;2024-03-29T04:09:27;0.52;;;0.40;;
11197;SDS011;5655;48.744;9.162;2024-03-29T04:11:52;0.50;;;0.50;;
11197;SDS011;5655;48.744;9.162;2024-03-29T04:14:17;0.77;;;0.55;;
11197;SDS011;5655;48.744;9.162;2024-03-29T04:16:43;1.08;;;0.60;;
11197;SDS011;5655;48.744;9.162;2024-03-29T04:19:08;2.42;;;0.85;;
11197;SDS011;5655;48.744;9.162;2024-03-29T04:21:33;0.60;;;0.40;;
11197;SDS011;5655;48.744;9.162;2024-03-29T04:23:59;0.60;;;0.60;;
11197;SDS011;5655;48.744;9.162;2024-03-29T04:26:24;1.27;;;0.60;;
11197;SDS011;5655;48.744;9.162;2024-03-29T04:28:50;1.85;;;0.70;;
11197;SDS011;5655;48.744;9.162;2024-03-29T04:31:15;0.43;;;0.43;;
11197;SDS011;5655;48.744;9.162;2024-03-29T04:33:40;0.40;;;0.40;;
11197;SDS011;5655;48.744;9.162;2024-03-29T04:36:06;0.40;;;0.40;;
11197;SDS011;5655;48.744;9.162;2024-03-29T04:38:31;2.80;;;0.60;;
11197;SDS011;5655;48.744;9.162;2024-03-29T04:40:57;1.58;;;0.47;;
11197;SDS011;5655;48.744;9.162;2024-03-29T04:43:26;0.80;;;0.50;;
11197;SDS011;5655;48.744;9.162;2024-03-29T04:46:12;0.63;;;0.50;;
11197;SDS011;5655;48.744;9.162;2024-03-29T04:48:39;0.65;;;0.50;;
11197;SDS011;5655;48.744;9.162;2024-03-29T04:51:10;1.23;;;0.60;;
11197;SDS011;5655;48.744;9.162;2024-03-29T04:53:36;0.40;;;0.40;;
11197;SDS011;5655;48.744;9.162;2024-03-29T04:56:03;1.83;;;0.40;;
11197;SDS011;5655;48.744;9.162;2024-03-29T04:58:29;0.63;;;0.30;;
11197;SDS011;5655;48.744;9.162;2024-03-29T05:00:54;0.55;;;0.50;;
11197;SDS011;5655;48.744;9.162;2024-03-29T05:03:20;0.57;;;0.50;;
11197;SDS011;5655;48.744;9.162;2024-03-29T05:05:47;0.43;;;0.40;;
11197;SDS011;5655;48.744;9.162;2024-03-29T05:08:13;1.38;;;0.57;;
11197;SDS011;5655;48.744;9.162;2024-03-29T05:10:41;1.95;;;0.52;;
11197;SDS011;5655;48.744;9.162;2024-03-29T05:13:07;0.60;;;0.50;;
11197;SDS011;5655;48.744;9.162;2024-03-29T05:15:32;0.50;;;0.40;;
11197;SDS011;5655;48.744;9.162;2024-03-29T05:17:58;0.55;;;0.50;;
11197;SDS011;5655;48.744;9.162;2024-03-29T05:20:24;0.50;;;0.50;;
11197;SDS011;5655;48.744;9.162;2024-03-29T05:22:49;0.75;;;0.52;;
11197;SDS011;5655;48.744;9.162;2024-03-29T05:25:14;0.50;;;0.50;;
11197;SDS011;5655;48.744;9.162;2024-03-29T05:27:40;0.70;;;0.40;;
11197;SDS011;5655;48.744;9.162;2024-03-29T05:30:05;2.13;;;0.65;;
11197;SDS011;5655;48.744;9.162;2024-03-29T05:32:31;1.08;;;0.60;;
11197;SDS011;5655;48.744;9.162;2024-03-29T05:34:57;0.52;;;0.45;;
11197;SDS011;5655;48.744;9.162;2024-03-29T05:37:22;3.05;;;0.57;;
11197;SDS011;5655;48.744;9.162;2024-03-29T05:39:51;2.00;;;0.47;;
11197;SDS011;5655;48.744;9.162;2024-03-29T05:42:24;1.10;;;0.60;;
11197;SDS011;5655;48.744;9.162;2024-03-29T05:44:50;0.63;;;0.50;;
11197;SDS011;5655;48.744;9.162;2024-03-29T05:47:16;0.60;;;0.60;;
11197;SDS011;5655;48.744;9.162;2024-03-29T05:49:41;0.70;;;0.50;;
11197;SDS011;5655;48.744;9.162;2024-03-29T05:52:06;1.40;;;0.88;;
11197;SDS011;5655;48.744;9.162;2024-03-29T05:54:32;0.90;;;0.55;;
11197;SDS011;5655;48.744;9.162;2024-03-29T05:56:57;0.70;;;0.60;;
11197;SDS011;5655;48.744;9.162;2024-03-29T05:59:22;0.77;;;0.57;;
11197;SDS011;5655;48.744;9.162;2024-03-29T06:01:48;1.50;;;0.60;;
11197;SDS011;5655;48.744;9.162;2024-03-29T06:04:13;0.57;;;0.40;;
11197;SDS011;5655;48.744;9.162;2024-03-29T06:06:41;0.70;;;0.52;;
11197;SDS011;5655;48.744;9.162;2024-03-29T06:09:06;1.60;;;0.50;;
11197;SDS011;5655;48.744;9.162;2024-03-29T06:11:31;2.25;;;0.70;;
11197;SDS011;5655;48.744;9.162;2024-03-29T06:13:57;0.70;;;0.50;;
11197;SDS011;5655;48.744;9.162;2024-03-29T06:16:25;0.60;;;0.43;;
11197;SDS011;5655;48.744;9.162;2024-03-29T06:19:10;0.60;;;0.38;;
11197;SDS011;5655;48.744;9.162;2024-03-29T06:21:36;1.10;;;0.45;;
11197;SDS011;5655;48.744;9.162;2024-03-29T06:24:11;0.82;;;0.60;;
11197;SDS011;5655;48.744;9.162;2024-03-29T06:26:40;0.45;;;0.40;;
11197;SDS011;5655;48.744;9.162;2024-03-29T06:29:06;0.70;;;0.50;;
11197;SDS011;5655;48.744;9.162;2024-03-29T06:31:34;0.80;;;0.55;;
11197;SDS011;5655;48.744;9.162;2024-03-29T06:33:59;1.55;;;0.52;;
11197;SDS011;5655;48.744;9.162;2024-03-29T06:36:25;0.70;;;0.60;;
11197;SDS011;5655;48.744;9.162;2024-03-29T06:38:51;1.77;;;0.68;;
11197;SDS011;5655;48.744;9.162;2024-03-29T06:41:17;1.88;;;0.52;;
11197;SDS011;5655;48.744;9.162;2024-03-29T06:43:42;2.45;;;0.60;;
11197;SDS011;5655;48.744;9.162;2024-03-29T06:46:13;2.60;;;0.80;;
11197;SDS011;5655;48.744;9.162;2024-03-29T06:48:39;0.90;;;0.55;;
11197;SDS011;5655;48.744;9.162;2024-03-29T06:51:05;1.33;;;0.60;;
11197;SDS011;5655;48.744;9.162;2024-03-29T06:53:30;0.73;;;0.50;;
11197;SDS011;5655;48.744;9.162;2024-03-29T06:55:56;0.60;;;0.60;;
11197;SDS011;5655;48.744;9.162;2024-03-29T06:58:22;0.70;;;0.50;;
11197;SDS011;5655;48.744;9.162;2024-03-29T07:00:48;0.90;;;0.70;;
11197;SDS011;5655;48.744;9.162;2024-03-29T07:03:15;0.85;;;0.57;;
11197;SDS011;5655;48.744;9.162;2024-03-29T07:05:40;0.77;;;0.60;;
11197;SDS011;5655;48.744;9.162;2024-03-29T07:08:06;0.65;;;0.47;;
11197;SDS011;5655;48.744;9.162;2024-03-29T07:10:31;1.00;;;0.85;;
11197;SDS011;5655;48.744;9.162;2024-03-29T07:12:57;0.90;;;0.68;;
11197;SDS011;5655;48.744;9.162;2024-03-29T07:15:22;0.93;;;0.60;;
11197;SDS011;5655;48.744;9.162;2024-03-29T07:17:48;0.47;;;0.45;;
11197;SDS011;5655;48.744;9.162;2024-03-29T07:20:15;0.75;;;0.60;;
11197;SDS011;5655;48.744;9.162;2024-03-29T07:22:41;1.50;;;0.65;;
11197;SDS011;5655;48.744;9.162;2024-03-29T07:25:07;0.93;;;0.70;;
11197;SDS011;5655;48.744;9.162;2024-03-29T07:27:32;0.80;;;0.52;;
11197;SDS011;5655;48.744;9.162;2024-03-29T07:30:00;1.30;;;0.80;;
11197;SDS011;5655;48.744;9.162;2024-03-29T07:32:29;1.27;;;0.90;;
11197;SDS011;5655;48.744;9.162;2024-03-29T07:34:57;1.17;;;0.60;;
11197;SDS011;5655;48.744;9.162;2024-03-29T07:37:23;2.60;;;0.90;;
11197;SDS011;5655;48.744;9.162;2024-03-29T07:39:49;1.67;;;0.88;;
11197;SDS011;5655;48.744;9.162;2024-03-29T07:42:15;1.55;;;0.77;;
11197;SDS011;5655;48.744;9.162;2024-03-29T07:44:41;1.13;;;0.80;;
11197;SDS011;5655;48.744;9.162;2024-03-29T07:47:06;1.02;;;0.68;;
11197;SDS011;5655;48.744;9.162;2024-03-29T07:49:31;0.63;;;0.50;;
11197;SDS011;5655;48.744;9.162;2024-03-29T07:51:57;0.77;;;0.60;;
11197;SDS011;5655;48.744;9.162;2024-03-29T07:54:22;0.82;;;0.77;;
11197;SDS011;5655;48.744;9.162;2024-03-29T07:56:47;1.48;;;0.90;;
11197;SDS011;5655;48.744;9.162;2024-03-29T07:59:13;0.85;;;0.63;;
11197;SDS011;5655;48.744;9.162;2024-03-29T08:01:38;2.13;;;0.80;;
11197;SDS011;5655;48.744;9.162;2024-03-29T08:04:06;0.70;;;0.70;;
11197;SDS011;5655;48.744;9.162;2024-03-29T08:06:31;1.10;;;0.65;;
11197;SDS011;5655;48.744;9.162;2024-03-29T08:08:57;0.90;;;0.73;;
11197;SDS011;5655;48.744;9.162;2024-03-29T08:11:23;2.65;;;0.70;;
11197;SDS011;5655;48.744;9.162;2024-03-29T08:13:48;2.10;;;0.82;;
11197;SDS011;5655;48.744;9.162;2024-03-29T08:16:13;2.20;;;0.90;;
11197;SDS011;5655;48.744;9.162;2024-03-29T08:18:41;1.13;;;0.85;;
11197;SDS011;5655;48.744;9.162;2024-03-29T08:21:07;3.20;;;1.20;;
11197;SDS011;5655;48.744;9.162;2024-03-29T08:23:36;1.77;;;1.10;;
11197;SDS011;5655;48.744;9.162;2024-03-29T08:26:03;0.90;;;0.77;;
11197;SDS011;5655;48.744;9.162;2024-03-29T08:28:29;1.70;;;0.82;;
11197;SDS011;5655;48.744;9.162;2024-03-29T08:31:00;1.33;;;1.00;;
11197;SDS011;5655;48.744;9.162;2024-03-29T08:33:27;2.00;;;0.73;;
11197;SDS011;5655;48.744;9.162;2024-03-29T08:35:53;4.32;;;1.17;;
11197;SDS011;5655;48.744;9.162;2024-03-29T08:38:18;1.38;;;0.77;;
11197;SDS011;5655;48.744;9.162;2024-03-29T08:40:43;1.60;;;0.98;;
11197;SDS011;5655;48.744;9.162;2024-03-29T08:43:11;3.60;;;1.17;;
11197;SDS011;5655;48.744;9.162;2024-03-29T08:45:36;2.10;;;1.15;;
11197;SDS011;5655;48.744;9.162;2024-03-29T08:48:06;2.13;;;0.70;;
11197;SDS011;5655;48.744;9.162;2024-03-29T08:50:32;1.20;;;0.85;;
11197;SDS011;5655;48.744;9.162;2024-03-29T08:52:57;3.33;;;1.00;;
11197;SDS011;5655;48.744;9.162;2024-03-29T08:55:22;2.20;;;1.10;;
11197;SDS011;5655;48.744;9.162;2024-03-29T08:57:48;2.67;;;0.80;;
11197;SDS011;5655;48.744;9.162;2024-03-29T09:00:13;3.00;;;0.88;;
11197;SDS011;5655;48.744;9.162;2024-03-29T09:02:39;3.80;;;1.20;;
11197;SDS011;5655;48.744;9.162;2024-03-29T09:05:04;2.25;;;0.93;;
11197;SDS011;5655;48.744;9.162;2024-03-29T09:07:30;1.80;;;1.40;;
11197;SDS011;5655;48.744;9.162;2024-03-29T09:09:55;2.53;;;1.95;;
11197;SDS011;5655;48.744;9.162;2024-03-29T09:12:20;5.13;;;2.72;;
11197;SDS011;5655;48.744;9.162;2024-03-29T09:14:46;4.07;;;1.15;;
11197;SDS011;5655;48.744;9.162;2024-03-29T09:17:11;1.42;;;0.80;;
11197;SDS011;5655;48.744;9.162;2024-03-29T09:19:37;2.92;;;1.13;;
11197;SDS011;5655;48.744;9.162;2024-03-29T09:22:02;3.00;;;0.93;;
11197;SDS011;5655;48.744;9.162;2024-03-29T09:24:27;2.92;;;0.95;;
11197;SDS011;5655;48.744;9.162;2024-03-29T09:26:54;2.83;;;0.77;;
11197;SDS011;5655;48.744;9.162;2024-03-29T09:29:19;2.88;;;1.00;;
11197;SDS011;5655;48.744;9.162;2024-03-29T09:31:47;4.63;;;1.00;;
11197;SDS011;5655;48.744;9.162;2024-03-29T09:34:13;2.47;;;1.20;;
11197;SDS011;5655;48.744;9.162;2024-03-29T09:36:38;1.75;;;0.98;;
11197;SDS011;5655;48.744;9.162;2024-03-29T09:39:04;1.83;;;0.93;;
11197;SDS011;5655;48.744;9.162;2024-03-29T09:41:29;1.38;;;1.08;;
11197;SDS011;5655;48.744;9.162;2024-03-29T09:43:57;3.60;;;1.48;;
11197;SDS011;5655;48.744;9.162;2024-03-29T09:46:24;5.35;;;1.23;;
11197;SDS011;5655;48.744;9.162;2024-03-29T09:48:52;1.98;;;1.00;;
11197;SDS011;5655;48.744;9.162;2024-03-29T09:51:18;2.67;;;1.00;;
11197;SDS011;5655;48.744;9.162;2024-03-29T09:53:45;1.50;;;0.90;;
11197;SDS011;5655;48.744;9.162;2024-03-29T09:56:11;1.52;;;0.95;;
11197;SDS011;5655;48.744;9.162;2024-03-29T09:58:37;1.92;;;1.10;;
11197;SDS011;5655;48.744;9.162;2024-03-29T10:01:03;2.60;;;1.10;;
11197;SDS011;5655;48.744;9.162;2024-03-29T10:03:30;2.75;;;1.25;;
11197;SDS011;5655;48.744;9.162;2024-03-29T10:05:57;5.75;;;1.33;;
11197;SDS011;5655;48.744;9.162;2024-03-29T10:08:28;1.48;;;0.98;;
11197;SDS011;5655;48.744;9.162;2024-03-29T10:10:58;1.50;;;0.90;;
11197;SDS011;5655;48.744;9.162;2024-03-29T10:13:24;2.17;;;1.38;;
11197;SDS011;5655;48.744;9.162;2024-03-29T10:15:49;2.00;;;1.30;;
11197;SDS011;5655;48.744;9.162;2024-03-29T10:18:18;2.97;;;1.50;;
11197;SDS011;5655;48.744;9.162;2024-03-29T10:20:45;2.45;;;1.25;;
11197;SDS011;5655;48.744;9.162;2024-03-29T10:23:10;2.83;;;1.40;;
11197;SDS011;5655;48.744;9.162;2024-03-29T10:25:35;2.95;;;1.30;;
11197;SDS011;5655;48.744;9.162;2024-03-29T10:28:01;2.85;;;1.40;;
11197;SDS011;5655;48.744;9.162;2024-03-29T10:30:27;8.55;;;2.83;;
11197;SDS011;5655;48.744;9.162;2024-03-29T10:32:55;2.50;;;1.38;;
11197;SDS011;5655;48.744;9.162;2024-03-29T10:35:21;1.92;;;1.20;;
11197;SDS011;5655;48.744;9.162;2024-03-29T10:37:46;3.75;;;1.63;;
11197;SDS011;5655;48.744;9.162;2024-03-29T10:40:11;3.00;;;1.58;;
11197;SDS011;5655;48.744;9.162;2024-03-29T10:42:42;3.05;;;1.48;;
11197;SDS011;5655;48.744;9.162;2024-03-29T10:45:09;2.45;;;1.60;;
11197;SDS011;5655;48.744;9.162;2024-03-29T10:47:35;1.95;;;1.20;;
11197;SDS011;5655;48.744;9.162;2024-03-29T10:50:01;3.20;;;1.15;;
11197;SDS011;5655;48.744;9.162;2024-03-29T10:52:30;2.38;;;1.02;;
11197;SDS011;5655;48.744;9.162;2024-03-29T10:54:56;1.63;;;1.13;;
11197;SDS011;5655;48.744;9.162;2024-03-29T10:57:24;2.83;;;1.20;;
11197;SDS011;5655;48.744;9.162;2024-03-29T11:00:01;1.30;;;1.20;;
11197;SDS011;5655;48.744;9.162;2024-03-29T11:02:48;3.13;;;1.23;;
11197;SDS011;5655;48.744;9.162;2024-03-29T11:05:22;1.38;;;1.08;;
11197;SDS011;5655;48.744;9.162;2024-03-29T11:07:48;1.98;;;0.93;;
11197;SDS011;5655;48.744;9.162;2024-03-29T11:10:17;3.00;;;1.40;;
11197;SDS011;5655;48.744;9.162;2024-03-29T11:12:57;1.80;;;1.17;;
11197;SDS011;5655;48.744;9.162;2024-03-29T11:15:30;1.60;;;0.93;;
11197;SDS011;5655;48.744;9.162;2024-03-29T11:17:59;1.50;;;1.00;;
11197;SDS011;5655;48.744;9.162;2024-03-29T11:20:25;1.13;;;0.95;;
11197;SDS011;5655;48.744;9.162;2024-03-29T11:22:58;2.17;;;0.80;;
11197;SDS011;5655;48.744;9.162;2024-03-29T11:25:37;2.65;;;0.80;;
11197;SDS011;5655;48.744;9.162;2024-03-29T11:28:13;0.98;;;0.70;;
11197;SDS011;5655;48.744;9.162;2024-03-29T11:30:49;1.05;;;0.73;;
11197;SDS011;5655;48.744;9.162;2024-03-29T11:33:27;1.67;;;1.17;;
11197;SDS011;5655;48.744;9.162;2024-03-29T11:35:57;3.10;;;1.50;;
11197;SDS011;5655;48.744;9.162;2024-03-29T11:38:33;1.92;;;1.52;;
11197;SDS011;5655;48.744;9.162;2024-03-29T11:41:04;2.83;;;1.63;;
11197;SDS011;5655;48.744;9.162;2024-03-29T11:43:36;1.98;;;1.70;;
11197;SDS011;5655;48.744;9.162;2024-03-29T11:46:04;2.05;;;1.50;;
11197;SDS011;5655;48.744;9.162;2024-03-29T11:48:32;2.88;;;2.38;;
11197;SDS011;5655;48.744;9.162;2024-03-29T11:50:57;3.67;;;1.27;;
11197;SDS011;5655;48.744;9.162;2024-03-29T11:53:23;2.35;;;1.40;;
11197;SDS011;5655;48.744;9.162;2024-03-29T11:55:49;2.63;;;1.40;;
11197;SDS011;5655;48.744;9.162;2024-03-29T11:58:25;5.63;;;1.40;;
11197;SDS011;5655;48.744;9.162;2024-03-29T12:00:52;4.70;;;1.60;;
11197;SDS011;5655;48.744;9.162;2024-03-29T12:03:19;4.22;;;1.10;;
11197;SDS011;5655;48.744;9.162;2024-03-29T12:05:47;2.00;;;1.10;;
11197;SDS011;5655;48.744;9.162;2024-03-29T12:08:13;1.58;;;1.00;;
11197;SDS011;5655;48.744;9.162;2024-03-29T12:10:39;2.05;;;1.20;;
11197;SDS011;5655;48.744;9.162;2024-03-29T12:13:05;1.63;;;1.30;;
11197;SDS011;5655;48.744;9.162;2024-03-29T12:15:31;2.25;;;1.20;;
11197;SDS011;5655;48.744;9.162;2024-03-29T12:17:57;2.38;;;0.88;;
11197;SDS011;5655;48.744;9.162;2024-03-29T12:20:24;1.52;;;0.88;;
11197;SDS011;5655;48.744;9.162;2024-03-29T12:22:50;1.33;;;1.00;;
11197;SDS011;5655;48.744;9.162;2024-03-29T12:25:15;1.77;;;0.85;;
11197;SDS011;5655;48.744;9.162;2024-03-29T12:27:42;1.17;;;0.93;;
11197;SDS011;5655;48.744;9.162;2024-03-29T12:30:09;2.60;;;1.20;;
11197;SDS011;5655;48.744;9.162;2024-03-29T12:32:35;2.33;;;1.50;;
11197;SDS011;5655;48.744;9.162;2024-03-29T12:35:14;1.63;;;1.52;;
11197;SDS011;5655;48.744;9.162;2024-03-29T12:37:50;3.60;;;2.00;;
11197;SDS011;5655;48.744;9.162;2024-03-29T12:40:17;3.10;;;1.63;;
11197;SDS011;5655;48.744;9.162;2024-03-29T12:42:48;3.53;;;2.17;;
11197;SDS011;5655;48.744;9.162;2024-03-29T12:45:15;2.72;;;2.10;;
11197;SDS011;5655;48.744;9.162;2024-03-29T12:47:42;3.00;;;2.17;;
11197;SDS011;5655;48.744;9.162;2024-03-29T12:50:07;3.70;;;1.73;;
11197;SDS011;5655;48.744;9.162;2024-03-29T12:52:39;3.40;;;1.80;;
11197;SDS011;5655;48.744;9.162;2024-03-29T12:55:06;2.20;;;1.60;;
11197;SDS011;5655;48.744;9.162;2024-03-29T12:57:33;2.38;;;1.55;;
11197;SDS011;5655;48.744;9.162;2024-03-29T12:59:59;2.63;;;1.30;;
11197;SDS011;5655;48.744;9.162;2024-03-29T13:02:24;1.88;;;1.30;;
11197;SDS011;5655;48.744;9.162;2024-03-29T13:04:49;2.60;;;1.75;;
11197;SDS011;5655;48.744;9.162;2024-03-29T13:07:16;2.72;;;2.03;;
11197;SDS011;5655;48.744;9.162;2024-03-29T13:09:41;2.05;;;1.60;;
11197;SDS011;5655;48.744;9.162;2024-03-29T13:12:06;3.50;;;1.55;;
11197;SDS011;5655;48.744;9.162;2024-03-29T13:14:32;1.95;;;1.42;;
11197;SDS011;5655;48.744;9.162;2024-03-29T13:16:58;2.08;;;1.35;;
11197;SDS011;5655;48.744;9.162;2024-03-29T13:19:24;2.42;;;1.33;;
11197;SDS011;5655;48.744;9.162;2024-03-29T13:21:49;3.80;;;1.55;;
11197;SDS011;5655;48.744;9.162;2024-03-29T13:24:15;2.72;;;1.10;;
11197;SDS011;5655;48.744;9.162;2024-03-29T13:26:40;1.85;;;0.85;;
11197;SDS011;5655;48.744;9.162;2024-03-29T13:29:06;3.65;;;1.30;;
11197;SDS011;5655;48.744;9.162;2024-03-29T13:31:31;3.03;;;0.90;;
11197;SDS011;5655;48.744;9.162;2024-03-29T13:33:58;2.08;;;1.35;;
11197;SDS011;5655;48.744;9.162;2024-03-29T13:36:29;2.75;;;1.40;;
11197;SDS011;5655;48.744;9.162;2024-03-29T13:38:55;2.28;;;1.25;;
11197;SDS011;5655;48.744;9.162;2024-03-29T13:41:20;1.40;;;1.17;;
11197;SDS011;5655;48.744;9.162;2024-03-29T13:43:46;2.33;;;1.00;;
11197;SDS011;5655;48.744;9.162;2024-03-29T13:46:12;0.90;;;0.70;;
11197;SDS011;5655;48.744;9.162;2024-03-29T13:48:37;1.40;;;0.80;;
11197;SDS011;5655;48.744;9.162;2024-03-29T13:51:03;1.25;;;0.75;;
11197;SDS011;5655;48.744;9.162;2024-03-29T13:53:28;2.00;;;0.70;;
11197;SDS011;5655;48.744;9.162;2024-03-29T13:55:59;0.60;;;0.60;;
11197;SDS011;5655;48.744;9.162;2024-03-29T13:58:25;0.65;;;0.60;;
11197;SDS011;5655;48.744;9.162;2024-03-29T14:00:52;1.38;;;0.80;;
11197;SDS011;5655;48.744;9.162;2024-03-29T14:03:20;1.90;;;1.13;;
11197;SDS011;5655;48.744;9.162;2024-03-29T14:05:47;1.08;;;0.90;;
11197;SDS011;5655;48.744;9.162;2024-03-29T14:08:13;3.47;;;0.73;;
11197;SDS011;5655;48.744;9.162;2024-03-29T14:10:39;1.00;;;0.90;;
11197;SDS011;5655;48.744;9.162;2024-03-29T14:13:04;2.33;;;0.98;;
11197;SDS011;5655;48.744;9.162;2024-03-29T14:15:29;1.10;;;0.90;;
11197;SDS011;5655;48.744;9.162;2024-03-29T14:17:55;1.23;;;0.73;;
11197;SDS011;5655;48.744;9.162;2024-03-29T14:20:21;2.00;;;1.40;;
11197;SDS011;5655;48.744;9.162;2024-03-29T14:22:47;1.40;;;1.00;;
11197;SDS011;5655;48.744;9.162;2024-03-29T14:25:17;1.65;;;0.90;;
11197;SDS011;5655;48.744;9.162;2024-03-29T14:27:42;1.20;;;1.10;;
11197;SDS011;5655;48.744;9.162;2024-03-29T14:30:19;1.30;;;0.90;;
11197;SDS011;5655;48.744;9.162;2024-03-29T14:32:46;1.08;;;0.80;;
11197;SDS011;5655;48.744;9.162;2024-03-29T14:35:12;1.48;;;0.75;;
11197;SDS011;5655;48.744;9.162;2024-03-29T14:37:39;1.25;;;1.00;;
11197;SDS011;5655;48.744;9.162;2024-03-29T14:40:05;1.42;;;0.90;;
11197;SDS011;5655;48.744;9.162;2024-03-29T14:42:30;2.13;;;0.93;;
11197;SDS011;5655;48.744;9.162;2024-03-29T14:44:56;1.25;;;1.00;;
11197;SDS011;5655;48.744;9.162;2024-03-29T14:47:22;1.30;;;1.00;;
11197;SDS011;5655;48.744;9.162;2024-03-29T14:49:47;0.65;;;0.60;;
11197;SDS011;5655;48.744;9.162;2024-03-29T14:52:13;3.13;;;0.88;;
11197;SDS011;5655;48.744;9.162;2024-03-29T14:54:38;1.33;;;1.02;;
11197;SDS011;5655;48.744;9.162;2024-03-29T14:57:04;1.15;;;0.73;;